sensor_id;sensor_type;location;lat;lon;timestamp;temperature;humidity
11043;DHT22;5574;48.786;10.120;2023-02-01T00:01:05;3.70;99.90
11043;DHT22;5574;48.786;10.120;2023-02-01T00:03:32;3.70;99.90
11043;DHT22;5574;48.786;10.120;2023-02-01T00:05:59;3.70;99.90
11043;DHT22;5574;48.786;10.120;2023-02-01T00:08:26;3.70;99.90
11043;DHT22;5574;48.786;10.120;2023-02-01T00:10:58;3.70;99.90
11043;DHT22;5574;48.786;10.120;2023-02-01T00:13:28;3.70;99.90
11043;DHT22;5574;48.786;10.120;2023-02-01T00:16:02;3.80;99.90
11043;DHT22;5574;48.786;10.120;2023-02-01T00:18:29;3.80;99.90
11043;DHT22;5574;48.786;10.120;2023-02-01T00:20:56;3.80;99.90
11043;DHT22;5574;48.786;10.120;2023-02-01T00:23:23;3.80;99.90
11043;DHT22;5574;48.786;10.120;2023-02-01T00:25:49;3.80;99.90
11043;DHT22;5574;48.786;10.120;2023-02-01T00:28:16;3.80;99.90
11043;DHT22;5574;48.786;10.120;2023-02-01T00:30:43;3.80;99.90
11043;DHT22;5574;48.786;10.120;2023-02-01T00:33:11;3.80;99.90
11043;DHT22;5574;48.786;10.120;2023-02-01T00:35:38;3.80;99.90
11043;DHT22;5574;48.786;10.120;2023-02-01T00:38:05;3.80;99.90
11043;DHT22;5574;48.786;10.120;2023-02-01T00:40:31;3.90;99.90
11043;DHT22;5574;48.786;10.120;2023-02-01T00:42:58;3.80;99.90
11043;DHT22;5574;48.786;10.120;2023-02-01T00:45:25;3.80;99.90
11043;DHT22;5574;48.786;10.120;2023-02-01T00:47:51;3.90;99.90
11043;DHT22;5574;48.786;10.120;2023-02-01T00:50:19;3.90;99.90
11043;DHT22;5574;48.786;10.120;2023-02-01T00:52:46;3.90;99.90
11043;DHT22;5574;48.786;10.120;2023-02-01T00:55:13;3.90;99.90
11043;DHT22;5574;48.786;10.120;2023-02-01T00:57:40;3.90;99.90
11043;DHT22;5574;48.786;10.120;2023-02-01T01:00:08;3.90;99.90
11043;DHT22;5574;48.786;10.120;2023-02-01T01:02:34;3.90;99.90
11043;DHT22;5574;48.786;10.120;2023-02-01T01:05:01;3.90;99.90
11043;DHT22;5574;48.786;10.120;2023-02-01T01:07:29;3.90;99.90
11043;DHT22;5574;48.786;10.120;2023-02-01T01:09:56;3.80;99.90
11043;DHT22;5574;48.786;10.120;2023-02-01T01:12:23;3.80;99.90
11043;DHT22;5574;48.786;10.120;2023-02-01T01:14:49;3.80;99.90
11043;DHT22;5574;48.786;10.120;2023-02-01T01:17:16;3.80;99.90
11043;DHT22;5574;48.786;10.120;2023-02-01T01:19:43;3.80;99.90
11043;DHT22;5574;48.786;10.120;2023-02-01T01:22:09;3.70;99.90
11043;DHT22;5574;48.786;10.120;2023-02-01T01:24:37;3.70;99.90
11043;DHT22;5574;48.786;10.120;2023-02-01T01:27:04;3.70;99.90
11043;DHT22;5574;48.786;10.120;2023-02-01T01:29:31;3.80;99.90
11043;DHT22;5574;48.786;10.120;2023-02-01T01:31:57;3.80;99.90
11043;DHT22;5574;48.786;10.120;2023-02-01T01:34:24;3.80;99.90
11043;DHT22;5574;48.786;10.120;2023-02-01T01:36:51;3.80;99.90
11043;DHT22;5574;48.786;10.120;2023-02-01T01:39:17;3.80;99.90
11043;DHT22;5574;48.786;10.120;2023-02-01T01:41:46;3.80;99.90
11043;DHT22;5574;48.786;10.120;2023-02-01T01:47:25;3.80;99.90
11043;DHT22;5574;48.786;10.120;2023-02-01T01:49:53;3.80;99.90
11043;DHT22;5574;48.786;10.120;2023-02-01T01:52:20;3.80;99.90
11043;DHT22;5574;48.786;10.120;2023-02-01T01:54:48;3.80;99.90
11043;DHT22;5574;48.786;10.120;2023-02-01T01:57:23;3.80;99.90
11043;DHT22;5574;48.786;10.120;2023-02-01T01:59:54;3.80;99.90
11043;DHT22;5574;48.786;10.120;2023-02-01T02:02:23;3.80;99.90
11043;DHT22;5574;48.786;10.120;2023-02-01T02:04:50;3.80;99.90
11043;DHT22;5574;48.786;10.120;2023-02-01T02:07:21;3.70;99.90
11043;DHT22;5574;48.786;10.120;2023-02-01T02:09:49;3.70;99.90
11043;DHT22;5574;48.786;10.120;2023-02-01T02:12:16;3.80;99.90
11043;DHT22;5574;48.786;10.120;2023-02-01T02:14:44;3.80;99.90
11043;DHT22;5574;48.786;10.120;2023-02-01T02:17:26;3.80;99.90
11043;DHT22;5574;48.786;10.120;2023-02-01T02:26:26;3.90;99.90
11043;DHT22;5574;48.786;10.120;2023-02-01T02:32:30;3.90;99.90
11043;DHT22;5574;48.786;10.120;2023-02-01T02:35:09;3.90;99.90
11043;DHT22;5574;48.786;10.120;2023-02-01T02:37:45;3.90;99.90
11043;DHT22;5574;48.786;10.120;2023-02-01T02:40:20;3.90;99.90
11043;DHT22;5574;48.786;10.120;2023-02-01T02:42:52;4.00;99.90
11043;DHT22;5574;48.786;10.120;2023-02-01T02:45:43;3.90;99.90
11043;DHT22;5574;48.786;10.120;2023-02-01T02:48:32;4.00;99.90
11043;DHT22;5574;48.786;10.120;2023-02-01T02:51:09;4.00;99.90
11043;DHT22;5574;48.786;10.120;2023-02-01T02:54:02;4.00;99.90
11043;DHT22;5574;48.786;10.120;2023-02-01T02:56:48;4.00;99.90
11043;DHT22;5574;48.786;10.120;2023-02-01T02:59:35;4.00;99.90
11043;DHT22;5574;48.786;10.120;2023-02-01T03:02:20;4.00;99.90
11043;DHT22;5574;48.786;10.120;2023-02-01T03:05:05;4.10;99.90
11043;DHT22;5574;48.786;10.120;2023-02-01T03:07:57;4.10;99.90
11043;DHT22;5574;48.786;10.120;2023-02-01T03:10:35;4.10;99.90
11043;DHT22;5574;48.786;10.120;2023-02-01T03:13:06;4.10;99.90
11043;DHT22;5574;48.786;10.120;2023-02-01T03:15:36;4.10;99.90
11043;DHT22;5574;48.786;10.120;2023-02-01T03:18:09;4.10;99.90
11043;DHT22;5574;48.786;10.120;2023-02-01T03:20:40;4.10;99.90
11043;DHT22;5574;48.786;10.120;2023-02-01T03:23:10;4.10;99.90
11043;DHT22;5574;48.786;10.120;2023-02-01T03:25:39;4.10;99.90
11043;DHT22;5574;48.786;10.120;2023-02-01T03:28:07;4.20;99.90
11043;DHT22;5574;48.786;10.120;2023-02-01T03:30:37;4.10;99.90
11043;DHT22;5574;48.786;10.120;2023-02-01T03:33:07;4.10;99.90
11043;DHT22;5574;48.786;10.120;2023-02-01T03:35:42;4.10;99.90
11043;DHT22;5574;48.786;10.120;2023-02-01T03:38:16;4.10;99.90
11043;DHT22;5574;48.786;10.120;2023-02-01T03:40:48;4.10;99.90
11043;DHT22;5574;48.786;10.120;2023-02-01T03:43:19;4.10;99.90
11043;DHT22;5574;48.786;10.120;2023-02-01T03:45:50;4.10;99.90
11043;DHT22;5574;48.786;10.120;2023-02-01T03:48:20;4.10;99.90
11043;DHT22;5574;48.786;10.120;2023-02-01T03:50:51;4.10;99.90
11043;DHT22;5574;48.786;10.120;2023-02-01T03:53:22;4.00;99.90
11043;DHT22;5574;48.786;10.120;2023-02-01T03:55:51;4.10;99.90
11043;DHT22;5574;48.786;10.120;2023-02-01T03:58:20;4.00;99.90
11043;DHT22;5574;48.786;10.120;2023-02-01T04:00:51;4.00;99.90
11043;DHT22;5574;48.786;10.120;2023-02-01T04:03:18;4.00;99.90
11043;DHT22;5574;48.786;10.120;2023-02-01T04:05:45;4.00;99.90
11043;DHT22;5574;48.786;10.120;2023-02-01T04:08:11;4.00;99.90
11043;DHT22;5574;48.786;10.120;2023-02-01T04:10:39;4.00;99.90
11043;DHT22;5574;48.786;10.120;2023-02-01T04:13:06;3.90;99.90
11043;DHT22;5574;48.786;10.120;2023-02-01T04:15:33;4.00;99.90
11043;DHT22;5574;48.786;10.120;2023-02-01T04:18:00;4.00;99.90
11043;DHT22;5574;48.786;10.120;2023-02-01T04:20:27;4.00;99.90
11043;DHT22;5574;48.786;10.120;2023-02-01T04:22:54;4.00;99.90
11043;DHT22;5574;48.786;10.120;2023-02-01T04:25:21;4.00;99.90
11043;DHT22;5574;48.786;10.120;2023-02-01T04:27:49;4.00;99.90
11043;DHT22;5574;48.786;10.120;2023-02-01T04:30:16;4.00;99.90
11043;DHT22;5574;48.786;10.120;2023-02-01T04:32:43;4.00;99.90
11043;DHT22;5574;48.786;10.120;2023-02-01T04:35:10;4.00;99.90
11043;DHT22;5574;48.786;10.120;2023-02-01T04:37:37;4.00;99.90
11043;DHT22;5574;48.786;10.120;2023-02-01T04:40:04;4.00;99.90
11043;DHT22;5574;48.786;10.120;2023-02-01T04:42:31;4.00;99.90
11043;DHT22;5574;48.786;10.120;2023-02-01T04:44:59;4.10;99.90
11043;DHT22;5574;48.786;10.120;2023-02-01T04:47:26;4.10;99.90
11043;DHT22;5574;48.786;10.120;2023-02-01T04:49:52;4.10;99.90
11043;DHT22;5574;48.786;10.120;2023-02-01T04:52:19;4.10;99.90
11043;DHT22;5574;48.786;10.120;2023-02-01T04:54:46;4.10;99.90
11043;DHT22;5574;48.786;10.120;2023-02-01T04:57:12;4.10;99.90
11043;DHT22;5574;48.786;10.120;2023-02-01T04:59:40;4.10;99.90
11043;DHT22;5574;48.786;10.120;2023-02-01T05:02:08;4.10;99.90
11043;DHT22;5574;48.786;10.120;2023-02-01T05:04:35;4.10;99.90
11043;DHT22;5574;48.786;10.120;2023-02-01T05:07:01;4.10;99.90
11043;DHT22;5574;48.786;10.120;2023-02-01T05:09:28;4.10;99.90
11043;DHT22;5574;48.786;10.120;2023-02-01T05:11:55;4.20;99.90
11043;DHT22;5574;48.786;10.120;2023-02-01T05:14:39;4.20;99.90
11043;DHT22;5574;48.786;10.120;2023-02-01T05:17:07;4.20;99.90
11043;DHT22;5574;48.786;10.120;2023-02-01T05:19:34;4.20;99.90
11043;DHT22;5574;48.786;10.120;2023-02-01T05:22:00;4.20;99.90
11043;DHT22;5574;48.786;10.120;2023-02-01T05:24:27;4.30;99.90
11043;DHT22;5574;48.786;10.120;2023-02-01T05:26:54;4.30;99.90
11043;DHT22;5574;48.786;10.120;2023-02-01T05:29:20;4.30;99.90
11043;DHT22;5574;48.786;10.120;2023-02-01T05:31:47;4.40;99.90
11043;DHT22;5574;48.786;10.120;2023-02-01T05:34:16;4.30;99.90
11043;DHT22;5574;48.786;10.120;2023-02-01T05:36:43;4.40;99.90
11043;DHT22;5574;48.786;10.120;2023-02-01T05:39:10;4.40;99.90
11043;DHT22;5574;48.786;10.120;2023-02-01T05:41:37;4.40;99.90
11043;DHT22;5574;48.786;10.120;2023-02-01T05:44:04;4.40;99.90
11043;DHT22;5574;48.786;10.120;2023-02-01T05:46:32;4.40;99.90
11043;DHT22;5574;48.786;10.120;2023-02-01T05:48:59;4.40;99.90
11043;DHT22;5574;48.786;10.120;2023-02-01T05:51:27;4.40;99.90
11043;DHT22;5574;48.786;10.120;2023-02-01T05:53:55;4.40;99.90
11043;DHT22;5574;48.786;10.120;2023-02-01T05:56:21;4.40;99.90
11043;DHT22;5574;48.786;10.120;2023-02-01T05:58:48;4.40;99.90
11043;DHT22;5574;48.786;10.120;2023-02-01T06:01:15;4.40;99.90
11043;DHT22;5574;48.786;10.120;2023-02-01T06:03:41;4.40;99.90
11043;DHT22;5574;48.786;10.120;2023-02-01T06:06:08;4.40;99.90
11043;DHT22;5574;48.786;10.120;2023-02-01T06:08:36;4.40;99.90
11043;DHT22;5574;48.786;10.120;2023-02-01T06:11:05;4.40;99.90
11043;DHT22;5574;48.786;10.120;2023-02-01T06:13:33;4.40;99.90
11043;DHT22;5574;48.786;10.120;2023-02-01T06:15:59;4.40;99.90
11043;DHT22;5574;48.786;10.120;2023-02-01T06:18:26;4.40;99.90
11043;DHT22;5574;48.786;10.120;2023-02-01T06:20:53;4.40;99.90
11043;DHT22;5574;48.786;10.120;2023-02-01T06:23:20;4.40;99.90
11043;DHT22;5574;48.786;10.120;2023-02-01T06:25:51;4.40;99.90
11043;DHT22;5574;48.786;10.120;2023-02-01T06:28:18;4.40;99.90
11043;DHT22;5574;48.786;10.120;2023-02-01T06:30:45;4.40;99.90
11043;DHT22;5574;48.786;10.120;2023-02-01T06:33:12;4.40;99.90
11043;DHT22;5574;48.786;10.120;2023-02-01T06:35:40;4.40;99.90
11043;DHT22;5574;48.786;10.120;2023-02-01T06:38:09;4.40;99.90
11043;DHT22;5574;48.786;10.120;2023-02-01T06:40:36;4.40;99.90
11043;DHT22;5574;48.786;10.120;2023-02-01T06:43:04;4.40;99.90
11043;DHT22;5574;48.786;10.120;2023-02-01T06:45:31;4.40;99.90
11043;DHT22;5574;48.786;10.120;2023-02-01T06:47:58;4.40;99.90
11043;DHT22;5574;48.786;10.120;2023-02-01T06:50:25;4.50;99.90
11043;DHT22;5574;48.786;10.120;2023-02-01T06:52:51;4.50;99.90
11043;DHT22;5574;48.786;10.120;2023-02-01T06:55:18;4.50;99.90
11043;DHT22;5574;48.786;10.120;2023-02-01T06:57:45;4.50;99.90
11043;DHT22;5574;48.786;10.120;2023-02-01T07:00:14;4.50;99.90
11043;DHT22;5574;48.786;10.120;2023-02-01T07:02:40;4.50;99.90
11043;DHT22;5574;48.786;10.120;2023-02-01T07:05:08;4.50;99.90
11043;DHT22;5574;48.786;10.120;2023-02-01T07:07:35;4.50;99.90
11043;DHT22;5574;48.786;10.120;2023-02-01T07:10:01;4.50;99.90
11043;DHT22;5574;48.786;10.120;2023-02-01T07:12:28;4.50;99.90
11043;DHT22;5574;48.786;10.120;2023-02-01T07:14:55;4.50;99.90
11043;DHT22;5574;48.786;10.120;2023-02-01T07:17:23;4.50;99.90
11043;DHT22;5574;48.786;10.120;2023-02-01T07:19:49;4.50;99.90
11043;DHT22;5574;48.786;10.120;2023-02-01T07:22:16;4.50;99.90
11043;DHT22;5574;48.786;10.120;2023-02-01T07:24:43;4.50;99.90
11043;DHT22;5574;48.786;10.120;2023-02-01T07:27:09;4.50;99.90
11043;DHT22;5574;48.786;10.120;2023-02-01T07:29:36;4.50;99.90
11043;DHT22;5574;48.786;10.120;2023-02-01T07:32:03;4.50;99.90
11043;DHT22;5574;48.786;10.120;2023-02-01T07:34:31;4.50;99.90
11043;DHT22;5574;48.786;10.120;2023-02-01T07:36:58;4.50;99.90
11043;DHT22;5574;48.786;10.120;2023-02-01T07:39:25;4.50;99.90
11043;DHT22;5574;48.786;10.120;2023-02-01T07:41:53;4.50;99.90
11043;DHT22;5574;48.786;10.120;2023-02-01T07:44:22;4.50;99.90
11043;DHT22;5574;48.786;10.120;2023-02-01T07:46:49;4.50;99.90
11043;DHT22;5574;48.786;10.120;2023-02-01T07:49:15;4.40;99.90
11043;DHT22;5574;48.786;10.120;2023-02-01T07:51:44;4.50;99.90
11043;DHT22;5574;48.786;10.120;2023-02-01T07:54:10;4.40;99.90
11043;DHT22;5574;48.786;10.120;2023-02-01T07:56:37;4.40;99.90
11043;DHT22;5574;48.786;10.120;2023-02-01T07:59:04;4.40;99.90
11043;DHT22;5574;48.786;10.120;2023-02-01T08:01:32;4.40;99.90
11043;DHT22;5574;48.786;10.120;2023-02-01T08:04:00;4.40;99.90
11043;DHT22;5574;48.786;10.120;2023-02-01T08:06:28;4.30;99.90
11043;DHT22;5574;48.786;10.120;2023-02-01T08:08:58;4.30;99.90
11043;DHT22;5574;48.786;10.120;2023-02-01T08:11:25;4.30;99.90
11043;DHT22;5574;48.786;10.120;2023-02-01T08:13:52;4.30;99.90
11043;DHT22;5574;48.786;10.120;2023-02-01T08:16:20;4.30;99.90
11043;DHT22;5574;48.786;10.120;2023-02-01T08:18:47;4.20;99.90
11043;DHT22;5574;48.786;10.120;2023-02-01T08:21:15;4.30;99.90
11043;DHT22;5574;48.786;10.120;2023-02-01T08:23:42;4.30;99.90
11043;DHT22;5574;48.786;10.120;2023-02-01T08:26:12;4.30;99.90
11043;DHT22;5574;48.786;10.120;2023-02-01T08:28:41;4.30;99.90
11043;DHT22;5574;48.786;10.120;2023-02-01T08:31:10;4.30;99.90
11043;DHT22;5574;48.786;10.120;2023-02-01T08:33:37;4.30;99.90
11043;DHT22;5574;48.786;10.120;2023-02-01T08:36:05;4.30;99.90
11043;DHT22;5574;48.786;10.120;2023-02-01T08:38:32;4.30;99.90
11043;DHT22;5574;48.786;10.120;2023-02-01T08:41:04;4.30;99.90
11043;DHT22;5574;48.786;10.120;2023-02-01T08:43:33;4.30;99.90
11043;DHT22;5574;48.786;10.120;2023-02-01T08:46:00;4.20;99.90
11043;DHT22;5574;48.786;10.120;2023-02-01T08:48:26;4.20;99.90
11043;DHT22;5574;48.786;10.120;2023-02-01T08:50:53;4.20;99.90
11043;DHT22;5574;48.786;10.120;2023-02-01T08:53:20;4.20;99.90
11043;DHT22;5574;48.786;10.120;2023-02-01T08:55:47;4.20;99.90
11043;DHT22;5574;48.786;10.120;2023-02-01T08:58:13;4.20;99.90
11043;DHT22;5574;48.786;10.120;2023-02-01T09:00:43;4.20;99.90
11043;DHT22;5574;48.786;10.120;2023-02-01T09:03:11;4.30;99.90
11043;DHT22;5574;48.786;10.120;2023-02-01T09:05:38;4.30;99.90
11043;DHT22;5574;48.786;10.120;2023-02-01T09:08:05;4.30;99.90
11043;DHT22;5574;48.786;10.120;2023-02-01T09:10:31;4.30;99.90
11043;DHT22;5574;48.786;10.120;2023-02-01T09:12:58;4.30;99.90
11043;DHT22;5574;48.786;10.120;2023-02-01T09:15:25;4.30;99.90
11043;DHT22;5574;48.786;10.120;2023-02-01T09:17:53;4.30;99.90
11043;DHT22;5574;48.786;10.120;2023-02-01T09:20:19;4.30;99.90
11043;DHT22;5574;48.786;10.120;2023-02-01T09:22:49;4.30;99.90
11043;DHT22;5574;48.786;10.120;2023-02-01T09:25:16;4.40;99.90
11043;DHT22;5574;48.786;10.120;2023-02-01T09:27:43;4.40;99.90
11043;DHT22;5574;48.786;10.120;2023-02-01T09:30:10;4.40;99.90
11043;DHT22;5574;48.786;10.120;2023-02-01T09:32:37;4.50;99.90
11043;DHT22;5574;48.786;10.120;2023-02-01T09:35:06;4.50;99.90
11043;DHT22;5574;48.786;10.120;2023-02-01T09:37:33;4.50;99.90
11043;DHT22;5574;48.786;10.120;2023-02-01T09:39:59;4.50;99.90
11043;DHT22;5574;48.786;10.120;2023-02-01T09:42:41;4.60;99.90
11043;DHT22;5574;48.786;10.120;2023-02-01T09:45:16;4.70;99.90
11043;DHT22;5574;48.786;10.120;2023-02-01T09:47:49;4.80;99.90
11043;DHT22;5574;48.786;10.120;2023-02-01T09:50:19;4.80;99.90
11043;DHT22;5574;48.786;10.120;2023-02-01T09:52:54;4.80;99.90
11043;DHT22;5574;48.786;10.120;2023-02-01T09:55:26;4.80;99.90
11043;DHT22;5574;48.786;10.120;2023-02-01T09:58:00;4.80;99.90
11043;DHT22;5574;48.786;10.120;2023-02-01T10:00:30;4.80;99.90
11043;DHT22;5574;48.786;10.120;2023-02-01T10:02:58;4.80;99.90
11043;DHT22;5574;48.786;10.120;2023-02-01T10:05:40;4.80;99.90
11043;DHT22;5574;48.786;10.120;2023-02-01T10:08:15;4.80;99.90
11043;DHT22;5574;48.786;10.120;2023-02-01T10:10:47;4.90;99.90
11043;DHT22;5574;48.786;10.120;2023-02-01T10:13:31;4.90;99.90
11043;DHT22;5574;48.786;10.120;2023-02-01T10:16:10;4.90;99.90
11043;DHT22;5574;48.786;10.120;2023-02-01T10:18:56;4.90;99.90
11043;DHT22;5574;48.786;10.120;2023-02-01T10:21:36;4.90;99.90
11043;DHT22;5574;48.786;10.120;2023-02-01T10:24:38;4.90;99.90
11043;DHT22;5574;48.786;10.120;2023-02-01T10:27:14;4.80;99.90
11043;DHT22;5574;48.786;10.120;2023-02-01T10:29:45;4.80;99.90
11043;DHT22;5574;48.786;10.120;2023-02-01T10:32:15;4.80;99.90
11043;DHT22;5574;48.786;10.120;2023-02-01T10:34:44;4.80;99.90
11043;DHT22;5574;48.786;10.120;2023-02-01T10:37:20;4.80;99.90
11043;DHT22;5574;48.786;10.120;2023-02-01T10:39:52;4.80;99.90
11043;DHT22;5574;48.786;10.120;2023-02-01T10:42:21;4.80;99.90
11043;DHT22;5574;48.786;10.120;2023-02-01T10:44:49;4.80;99.90
11043;DHT22;5574;48.786;10.120;2023-02-01T10:47:16;4.80;99.90
11043;DHT22;5574;48.786;10.120;2023-02-01T10:49:49;4.80;99.90
11043;DHT22;5574;48.786;10.120;2023-02-01T10:52:22;4.80;99.90
11043;DHT22;5574;48.786;10.120;2023-02-01T10:54:53;4.80;99.90
11043;DHT22;5574;48.786;10.120;2023-02-01T10:57:22;4.80;99.90
11043;DHT22;5574;48.786;10.120;2023-02-01T10:59:51;4.80;99.90
11043;DHT22;5574;48.786;10.120;2023-02-01T11:02:25;4.80;99.90
11043;DHT22;5574;48.786;10.120;2023-02-01T11:04:59;4.80;99.90
11043;DHT22;5574;48.786;10.120;2023-02-01T11:07:29;4.90;99.90
11043;DHT22;5574;48.786;10.120;2023-02-01T11:09:56;4.90;99.90
11043;DHT22;5574;48.786;10.120;2023-02-01T11:12:30;4.90;99.90
11043;DHT22;5574;48.786;10.120;2023-02-01T11:15:01;4.90;99.90
11043;DHT22;5574;48.786;10.120;2023-02-01T11:17:33;4.90;99.90
11043;DHT22;5574;48.786;10.120;2023-02-01T11:20:01;4.90;99.90
11043;DHT22;5574;48.786;10.120;2023-02-01T11:22:29;4.90;99.90
11043;DHT22;5574;48.786;10.120;2023-02-01T11:24:56;4.90;99.90
11043;DHT22;5574;48.786;10.120;2023-02-01T11:27:25;4.90;99.90
11043;DHT22;5574;48.786;10.120;2023-02-01T11:29:54;4.90;99.90
11043;DHT22;5574;48.786;10.120;2023-02-01T11:32:23;4.90;99.90
11043;DHT22;5574;48.786;10.120;2023-02-01T11:34:54;4.90;99.90
11043;DHT22;5574;48.786;10.120;2023-02-01T11:37:25;4.90;99.90
11043;DHT22;5574;48.786;10.120;2023-02-01T11:39:59;5.00;99.90
11043;DHT22;5574;48.786;10.120;2023-02-01T11:42:27;5.00;99.90
11043;DHT22;5574;48.786;10.120;2023-02-01T11:45:16;5.00;99.90
11043;DHT22;5574;48.786;10.120;2023-02-01T11:47:43;5.00;99.90
11043;DHT22;5574;48.786;10.120;2023-02-01T11:50:15;5.00;99.90
11043;DHT22;5574;48.786;10.120;2023-02-01T11:52:52;5.00;99.90
11043;DHT22;5574;48.786;10.120;2023-02-01T11:55:37;5.00;99.90
11043;DHT22;5574;48.786;10.120;2023-02-01T11:58:16;5.00;99.90
11043;DHT22;5574;48.786;10.120;2023-02-01T12:00:57;4.90;99.90
11043;DHT22;5574;48.786;10.120;2023-02-01T12:03:43;4.90;99.90
11043;DHT22;5574;48.786;10.120;2023-02-01T12:06:18;4.90;99.90
11043;DHT22;5574;48.786;10.120;2023-02-01T12:09:19;4.90;99.90
11043;DHT22;5574;48.786;10.120;2023-02-01T12:11:58;5.00;99.90
11043;DHT22;5574;48.786;10.120;2023-02-01T12:14:36;5.00;99.90
11043;DHT22;5574;48.786;10.120;2023-02-01T12:20:15;5.00;99.90
11043;DHT22;5574;48.786;10.120;2023-02-01T12:22:54;5.00;99.90
11043;DHT22;5574;48.786;10.120;2023-02-01T12:25:33;5.00;99.90
11043;DHT22;5574;48.786;10.120;2023-02-01T12:28:16;5.00;99.90
11043;DHT22;5574;48.786;10.120;2023-02-01T12:30:54;5.00;99.90
11043;DHT22;5574;48.786;10.120;2023-02-01T12:33:30;5.00;99.90
11043;DHT22;5574;48.786;10.120;2023-02-01T12:36:09;5.00;99.90
11043;DHT22;5574;48.786;10.120;2023-02-01T12:38:45;5.10;99.90
11043;DHT22;5574;48.786;10.120;2023-02-01T12:41:24;5.10;99.90
11043;DHT22;5574;48.786;10.120;2023-02-01T12:43:57;5.00;99.90
11043;DHT22;5574;48.786;10.120;2023-02-01T12:46:27;5.00;99.90
11043;DHT22;5574;48.786;10.120;2023-02-01T12:49:00;5.00;99.90
11043;DHT22;5574;48.786;10.120;2023-02-01T12:51:33;5.00;99.90
11043;DHT22;5574;48.786;10.120;2023-02-01T12:54:03;5.10;99.90
11043;DHT22;5574;48.786;10.120;2023-02-01T12:56:37;5.00;99.90
11043;DHT22;5574;48.786;10.120;2023-02-01T12:59:16;5.00;99.90
11043;DHT22;5574;48.786;10.120;2023-02-01T13:01:49;5.00;99.90
11043;DHT22;5574;48.786;10.120;2023-02-01T13:04:23;5.00;99.90
11043;DHT22;5574;48.786;10.120;2023-02-01T13:06:55;5.00;99.90
11043;DHT22;5574;48.786;10.120;2023-02-01T13:09:29;5.00;99.90
11043;DHT22;5574;48.786;10.120;2023-02-01T13:12:00;5.00;99.90
11043;DHT22;5574;48.786;10.120;2023-02-01T13:14:38;5.00;99.90
11043;DHT22;5574;48.786;10.120;2023-02-01T13:17:11;5.00;99.90
11043;DHT22;5574;48.786;10.120;2023-02-01T13:19:43;5.00;99.90
11043;DHT22;5574;48.786;10.120;2023-02-01T13:22:14;5.00;99.90
11043;DHT22;5574;48.786;10.120;2023-02-01T13:24:44;5.00;99.90
11043;DHT22;5574;48.786;10.120;2023-02-01T13:27:12;5.00;99.90
11043;DHT22;5574;48.786;10.120;2023-02-01T13:29:47;5.00;99.90
11043;DHT22;5574;48.786;10.120;2023-02-01T13:35:24;5.00;99.90
11043;DHT22;5574;48.786;10.120;2023-02-01T13:41:24;5.00;99.90
11043;DHT22;5574;48.786;10.120;2023-02-01T13:43:56;5.00;99.90
11043;DHT22;5574;48.786;10.120;2023-02-01T13:46:26;5.00;99.90
11043;DHT22;5574;48.786;10.120;2023-02-01T13:48:55;5.00;99.90
11043;DHT22;5574;48.786;10.120;2023-02-01T13:51:35;5.00;99.90
11043;DHT22;5574;48.786;10.120;2023-02-01T13:54:04;5.00;99.90
11043;DHT22;5574;48.786;10.120;2023-02-01T13:56:40;5.00;99.90
11043;DHT22;5574;48.786;10.120;2023-02-01T14:02:50;5.00;99.90
11043;DHT22;5574;48.786;10.120;2023-02-01T14:08:23;5.00;99.90
11043;DHT22;5574;48.786;10.120;2023-02-01T14:10:52;4.90;99.90
11043;DHT22;5574;48.786;10.120;2023-02-01T14:13:26;4.90;99.90
11043;DHT22;5574;48.786;10.120;2023-02-01T14:16:12;4.90;99.90
11043;DHT22;5574;48.786;10.120;2023-02-01T14:19:00;4.90;99.90
11043;DHT22;5574;48.786;10.120;2023-02-01T14:21:30;4.80;99.90
11043;DHT22;5574;48.786;10.120;2023-02-01T14:24:00;4.80;99.90
11043;DHT22;5574;48.786;10.120;2023-02-01T14:26:41;4.90;99.90
11043;DHT22;5574;48.786;10.120;2023-02-01T14:29:25;4.90;99.90
11043;DHT22;5574;48.786;10.120;2023-02-01T14:31:59;4.80;99.90
11043;DHT22;5574;48.786;10.120;2023-02-01T14:34:50;4.80;99.90
11043;DHT22;5574;48.786;10.120;2023-02-01T14:37:26;4.90;99.90
11043;DHT22;5574;48.786;10.120;2023-02-01T14:39:56;4.80;99.90
11043;DHT22;5574;48.786;10.120;2023-02-01T14:42:29;4.80;99.90
11043;DHT22;5574;48.786;10.120;2023-02-01T14:48:45;4.80;99.90
11043;DHT22;5574;48.786;10.120;2023-02-01T14:51:16;4.90;99.90
11043;DHT22;5574;48.786;10.120;2023-02-01T14:53:44;4.90;99.90
11043;DHT22;5574;48.786;10.120;2023-02-01T14:56:15;4.90;99.90
11043;DHT22;5574;48.786;10.120;2023-02-01T14:58:49;4.90;99.90
11043;DHT22;5574;48.786;10.120;2023-02-01T15:01:20;4.90;99.90
11043;DHT22;5574;48.786;10.120;2023-02-01T15:03:56;4.90;99.90
11043;DHT22;5574;48.786;10.120;2023-02-01T15:06:31;4.90;99.90
11043;DHT22;5574;48.786;10.120;2023-02-01T15:09:01;4.90;99.90
11043;DHT22;5574;48.786;10.120;2023-02-01T15:11:29;4.90;99.90
11043;DHT22;5574;48.786;10.120;2023-02-01T15:13:56;4.90;99.90
11043;DHT22;5574;48.786;10.120;2023-02-01T15:16:26;4.90;99.90
11043;DHT22;5574;48.786;10.120;2023-02-01T15:19:09;4.90;99.90
11043;DHT22;5574;48.786;10.120;2023-02-01T15:21:45;4.90;99.90
11043;DHT22;5574;48.786;10.120;2023-02-01T15:24:13;4.90;99.90
11043;DHT22;5574;48.786;10.120;2023-02-01T15:26:41;4.90;99.90
11043;DHT22;5574;48.786;10.120;2023-02-01T15:29:11;4.90;99.90
11043;DHT22;5574;48.786;10.120;2023-02-01T15:31:40;4.90;99.90
11043;DHT22;5574;48.786;10.120;2023-02-01T15:34:08;4.90;99.90
11043;DHT22;5574;48.786;10.120;2023-02-01T15:36:35;4.80;99.90
11043;DHT22;5574;48.786;10.120;2023-02-01T15:39:15;4.80;99.90
11043;DHT22;5574;48.786;10.120;2023-02-01T15:41:46;4.80;99.90
11043;DHT22;5574;48.786;10.120;2023-02-01T15:44:18;4.80;99.90
11043;DHT22;5574;48.786;10.120;2023-02-01T15:46:47;4.80;99.90
11043;DHT22;5574;48.786;10.120;2023-02-01T15:49:23;4.80;99.90
11043;DHT22;5574;48.786;10.120;2023-02-01T15:51:50;4.80;99.90
11043;DHT22;5574;48.786;10.120;2023-02-01T15:54:22;4.80;99.90
11043;DHT22;5574;48.786;10.120;2023-02-01T15:56:53;4.80;99.90
11043;DHT22;5574;48.786;10.120;2023-02-01T15:59:22;4.80;99.90
11043;DHT22;5574;48.786;10.120;2023-02-01T16:01:49;4.80;99.90
11043;DHT22;5574;48.786;10.120;2023-02-01T16:04:19;4.80;99.90
11043;DHT22;5574;48.786;10.120;2023-02-01T16:06:48;4.80;99.90
11043;DHT22;5574;48.786;10.120;2023-02-01T16:09:17;4.80;99.90
11043;DHT22;5574;48.786;10.120;2023-02-01T16:11:53;4.80;99.90
11043;DHT22;5574;48.786;10.120;2023-02-01T16:14:20;4.80;99.90
11043;DHT22;5574;48.786;10.120;2023-02-01T16:16:47;4.80;99.90
11043;DHT22;5574;48.786;10.120;2023-02-01T16:19:14;4.80;99.90
11043;DHT22;5574;48.786;10.120;2023-02-01T16:21:41;4.80;99.90
11043;DHT22;5574;48.786;10.120;2023-02-01T16:24:10;4.80;99.90
11043;DHT22;5574;48.786;10.120;2023-02-01T16:26:37;4.80;99.90
11043;DHT22;5574;48.786;10.120;2023-02-01T16:29:06;4.80;99.90
11043;DHT22;5574;48.786;10.120;2023-02-01T16:31:35;4.80;99.90
11043;DHT22;5574;48.786;10.120;2023-02-01T16:34:03;4.80;99.90
11043;DHT22;5574;48.786;10.120;2023-02-01T16:36:31;4.80;99.90
11043;DHT22;5574;48.786;10.120;2023-02-01T16:38:58;4.80;99.90